Time;durP1;ratioP1;P1;durP2;ratioP2;P2;SDS_P1;SDS_P2;PMS_P1;PMS_P2;Temp;Humidity;BMP_temperature;BMP_pressure;BME280_temperature;BME280_humidity;BME280_pressure;Samples;Min_cycle;Max_cycle;Signal;HPM_P1;HPM_P2
2021/07/11 00:00:49;;;;;;;2.22;1.50;;;;;;;;;;4992039;28;20653;-41
2021/07/11 00:03:16;;;;;;;3.45;1.73;;;;;;;;;;4993998;28;20125;-43
2021/07/11 00:05:43;;;;;;;4.13;1.70;;;;;;;;;;4996935;28;20424;-43
2021/07/11 00:08:10;;;;;;;4.13;2.08;;;;;;;;;;4994127;28;20484;-41
2021/07/11 00:10:36;;;;;;;3.00;1.77;;;;;;;;;;4987462;28;20082;-41
2021/07/11 00:13:04;;;;;;;5.55;1.90;;;;;;;;;;4994268;28;20050;-44
2021/07/11 00:15:31;;;;;;;3.08;2.33;;;;;;;;;;4999666;28;20047;-41
2021/07/11 00:18:00;;;;;;;3.33;2.40;;;;;;;;;;5004388;28;20058;-41
2021/07/11 00:20:27;;;;;;;3.35;2.40;;;;;;;;;;4993006;28;20037;-44
2021/07/11 00:22:54;;;;;;;3.20;2.30;;;;;;;;;;4992528;28;20302;-41
2021/07/11 00:25:21;;;;;;;2.80;2.00;;;;;;;;;;4975621;28;20388;-42
2021/07/11 00:27:48;;;;;;;2.70;1.90;;;;;;;;;;4990511;28;20052;-42
2021/07/11 00:30:16;;;;;;;4.68;1.95;;;;;;;;;;4994407;28;20047;-41
2021/07/11 00:32:43;;;;;;;4.55;1.75;;;;;;;;;;4988416;28;20137;-41
2021/07/11 00:35:11;;;;;;;2.70;1.90;;;;;;;;;;4994342;28;20042;-42
2021/07/11 00:37:38;;;;;;;2.70;2.00;;;;;;;;;;4993972;28;20043;-42
2021/07/11 00:40:06;;;;;;;3.47;2.10;;;;;;;;;;4993111;28;20043;-45
2021/07/11 00:42:33;;;;;;;2.70;1.95;;;;;;;;;;4991325;28;20038;-43
2021/07/11 00:45:03;;;;;;;3.05;1.98;;;;;;;;;;5009501;28;20089;-40
2021/07/11 00:47:36;;;;;;;2.67;1.90;;;;;;;;;;4992975;28;20489;-43
2021/07/11 00:50:03;;;;;;;2.88;1.77;;;;;;;;;;4992671;28;20516;-43
2021/07/11 00:52:30;;;;;;;3.45;1.80;;;;;;;;;;4992145;28;20129;-42
2021/07/11 00:54:57;;;;;;;4.95;2.25;;;;;;;;;;4989756;28;20054;-43
2021/07/11 00:57:27;;;;;;;3.15;1.90;;;;;;;;;;5007941;28;20049;-41
2021/07/11 00:59:54;;;;;;;3.30;1.95;;;;;;;;;;4993504;28;20042;-42
2021/07/11 01:02:40;;;;;;;3.53;1.80;;;;;;;;;;4988958;28;20038;-45
2021/07/11 01:05:08;;;;;;;3.28;1.90;;;;;;;;;;4992334;28;20037;-42
2021/07/11 01:07:42;;;;;;;3.78;1.92;;;;;;;;;;5007964;28;20514;-40
2021/07/11 01:10:18;;;;;;;3.50;1.90;;;;;;;;;;4990159;28;20504;-41
2021/07/11 01:12:47;;;;;;;3.40;1.95;;;;;;;;;;4991639;28;20034;-43
2021/07/11 01:15:15;;;;;;;2.97;2.03;;;;;;;;;;4993227;28;20065;-41
2021/07/11 01:17:44;;;;;;;2.85;1.80;;;;;;;;;;4987392;28;20043;-41
2021/07/11 01:20:17;;;;;;;2.80;1.70;;;;;;;;;;4980284;28;20045;-40
2021/07/11 01:22:46;;;;;;;4.95;1.90;;;;;;;;;;5007424;28;20069;-42
2021/07/11 01:25:22;;;;;;;3.97;2.08;;;;;;;;;;4990988;28;20122;-40
2021/07/11 01:27:50;;;;;;;2.88;1.98;;;;;;;;;;4992877;28;20072;-43
2021/07/11 01:30:19;;;;;;;3.47;2.22;;;;;;;;;;4991729;28;20050;-42
2021/07/11 01:32:47;;;;;;;3.72;2.30;;;;;;;;;;4987873;28;20560;-42
2021/07/11 01:35:25;;;;;;;2.78;2.10;;;;;;;;;;5067931;28;20427;-42
2021/07/11 01:37:53;;;;;;;2.80;2.10;;;;;;;;;;5059322;28;20409;-44
2021/07/11 01:40:20;;;;;;;4.03;1.85;;;;;;;;;;5047116;28;20045;-41
2021/07/11 01:42:48;;;;;;;2.55;2.03;;;;;;;;;;5037116;28;20041;-39
2021/07/11 01:45:15;;;;;;;2.72;2.00;;;;;;;;;;5033861;28;20072;-39
2021/07/11 01:47:42;;;;;;;3.25;2.10;;;;;;;;;;5046716;28;20045;-47
2021/07/11 01:50:10;;;;;;;2.60;1.90;;;;;;;;;;5039693;28;20065;-40
2021/07/11 01:52:39;;;;;;;2.83;1.90;;;;;;;;;;5029986;28;20041;-42
2021/07/11 01:55:07;;;;;;;3.40;2.42;;;;;;;;;;5044324;28;20075;-42
2021/07/11 01:57:36;;;;;;;3.28;1.92;;;;;;;;;;5040663;28;20045;-41
2021/07/11 02:00:14;;;;;;;3.40;2.00;;;;;;;;;;5043924;28;20451;-41
2021/07/11 02:02:44;;;;;;;2.63;1.90;;;;;;;;;;5045735;28;20088;-40
2021/07/11 02:05:20;;;;;;;2.63;1.73;;;;;;;;;;5038047;28;20042;-45
2021/07/11 02:07:50;;;;;;;2.58;1.73;;;;;;;;;;5036807;28;20487;-40
2021/07/11 02:10:18;;;;;;;2.53;1.77;;;;;;;;;;5041704;28;20084;-40
2021/07/11 02:13:01;;;;;;;2.17;1.45;;;;;;;;;;5037922;28;20045;-41
2021/07/11 02:15:31;;;;;;;1.88;1.40;;;;;;;;;;5043004;28;20689;-40
2021/07/11 02:18:03;;;;;;;2.33;1.35;;;;;;;;;;5035204;28;20384;-41
2021/07/11 02:20:38;;;;;;;2.55;1.50;;;;;;;;;;5059747;28;20142;-40
2021/07/11 02:23:08;;;;;;;2.25;1.30;;;;;;;;;;5030953;28;20450;-41
2021/07/11 02:25:38;;;;;;;1.67;1.30;;;;;;;;;;5034387;28;20041;-40
2021/07/11 02:28:06;;;;;;;2.08;1.30;;;;;;;;;;5046025;28;20140;-39
2021/07/11 02:30:51;;;;;;;1.55;1.17;;;;;;;;;;5032146;28;20117;-45
2021/07/11 02:33:26;;;;;;;3.17;1.27;;;;;;;;;;5030107;28;20053;-44
2021/07/11 02:35:57;;;;;;;1.45;1.20;;;;;;;;;;5045791;28;20116;-42
2021/07/11 02:38:24;;;;;;;1.45;1.13;;;;;;;;;;5042710;28;20556;-40
2021/07/11 02:40:51;;;;;;;1.73;1.30;;;;;;;;;;5026580;28;20033;-44
2021/07/11 02:43:20;;;;;;;2.88;1.38;;;;;;;;;;5037117;28;20037;-42
2021/07/11 02:45:48;;;;;;;2.17;1.25;;;;;;;;;;5041578;28;20441;-44
2021/07/11 02:48:16;;;;;;;2.92;1.33;;;;;;;;;;5037002;28;20038;-41
2021/07/11 02:50:45;;;;;;;0.95;0.85;;;;;;;;;;5031867;28;20117;-41
2021/07/11 02:53:22;;;;;;;1.80;1.10;;;;;;;;;;5017208;28;20450;-41
2021/07/11 02:55:57;;;;;;;1.30;1.00;;;;;;;;;;5028750;28;20034;-42
2021/07/11 02:58:28;;;;;;;1.67;0.90;;;;;;;;;;5024844;28;20108;-42
2021/07/11 03:00:56;;;;;;;1.48;1.08;;;;;;;;;;5028124;28;20037;-41
2021/07/11 03:03:25;;;;;;;1.65;0.90;;;;;;;;;;5022778;28;20049;-42
2021/07/11 03:05:58;;;;;;;1.10;0.80;;;;;;;;;;5029931;28;20057;-41
2021/07/11 03:08:27;;;;;;;1.08;0.80;;;;;;;;;;5031868;28;20057;-43
2021/07/11 03:11:00;;;;;;;2.57;1.10;;;;;;;;;;5024261;28;20043;-42
2021/07/11 03:13:31;;;;;;;0.95;0.75;;;;;;;;;;5032192;28;20073;-42
2021/07/11 03:15:59;;;;;;;1.20;0.80;;;;;;;;;;5031582;28;20124;-42
2021/07/11 03:18:30;;;;;;;0.85;0.73;;;;;;;;;;5010296;28;20026;-45
2021/07/11 03:20:58;;;;;;;2.53;0.90;;;;;;;;;;5017933;28;20117;-43
2021/07/11 03:23:26;;;;;;;1.45;0.70;;;;;;;;;;5030541;28;20056;-43
2021/07/11 03:25:55;;;;;;;1.65;0.80;;;;;;;;;;5032025;28;20092;-44
2021/07/11 03:28:21;;;;;;;0.90;0.80;;;;;;;;;;5031714;28;20069;-45
2021/07/11 03:30:49;;;;;;;1.50;0.70;;;;;;;;;;5029241;28;20041;-41
2021/07/11 03:33:17;;;;;;;1.60;0.70;;;;;;;;;;5025782;28;20564;-43
2021/07/11 03:35:47;;;;;;;2.00;1.00;;;;;;;;;;5031703;28;20037;-43
2021/07/11 03:38:17;;;;;;;3.00;0.75;;;;;;;;;;5031903;28;20472;-42
2021/07/11 03:40:46;;;;;;;1.48;0.90;;;;;;;;;;5018637;28;20033;-45
2021/07/11 03:43:16;;;;;;;1.20;0.60;;;;;;;;;;5031768;28;20060;-42
2021/07/11 03:45:46;;;;;;;1.27;0.88;;;;;;;;;;5032383;28;20112;-44
2021/07/11 03:48:17;;;;;;;0.77;0.70;;;;;;;;;;5031905;28;20048;-43
2021/07/11 03:50:50;;;;;;;2.25;0.82;;;;;;;;;;5016978;28;20076;-42
2021/07/11 03:53:21;;;;;;;1.63;0.75;;;;;;;;;;5027896;28;20078;-42
2021/07/11 03:55:48;;;;;;;1.88;0.70;;;;;;;;;;5029942;28;20044;-43
2021/07/11 03:58:15;;;;;;;0.90;0.80;;;;;;;;;;5030401;28;20041;-42
2021/07/11 04:00:44;;;;;;;0.88;0.60;;;;;;;;;;5030419;28;20437;-42
2021/07/11 04:03:10;;;;;;;0.90;0.70;;;;;;;;;;5012537;28;20108;-42
2021/07/11 04:05:38;;;;;;;0.63;0.52;;;;;;;;;;5013610;28;20045;-42
2021/07/11 04:08:10;;;;;;;0.95;0.50;;;;;;;;;;5031435;28;20042;-44
2021/07/11 04:10:37;;;;;;;0.82;0.60;;;;;;;;;;5021081;28;20076;-42
2021/07/11 04:13:04;;;;;;;1.33;0.88;;;;;;;;;;5026412;28;20120;-42
2021/07/11 04:15:32;;;;;;;1.23;0.70;;;;;;;;;;5020573;28;20041;-42
2021/07/11 04:18:01;;;;;;;0.70;0.70;;;;;;;;;;5016532;28;20065;-43
2021/07/11 04:20:29;;;;;;;1.05;0.90;;;;;;;;;;5023970;28;20229;-43
2021/07/11 04:22:57;;;;;;;0.80;0.80;;;;;;;;;;5016655;28;20038;-44
2021/07/11 04:25:24;;;;;;;0.85;0.60;;;;;;;;;;5021433;28;20052;-43
2021/07/11 04:27:51;;;;;;;0.80;0.77;;;;;;;;;;5012658;28;20170;-42
2021/07/11 04:30:18;;;;;;;2.45;0.93;;;;;;;;;;5012307;28;20046;-45
2021/07/11 04:32:45;;;;;;;1.02;0.70;;;;;;;;;;5044683;28;20564;-43
2021/07/11 04:35:12;;;;;;;2.17;0.82;;;;;;;;;;5028957;28;20508;-42
2021/07/11 04:37:38;;;;;;;1.10;0.88;;;;;;;;;;5029874;28;20061;-42
2021/07/11 04:40:05;;;;;;;1.10;0.85;;;;;;;;;;5012648;28;20050;-44
2021/07/11 04:42:32;;;;;;;1.27;0.80;;;;;;;;;;5016039;28;20129;-42
2021/07/11 04:45:02;;;;;;;0.90;0.77;;;;;;;;;;5031855;28;20145;-42
2021/07/11 04:47:29;;;;;;;1.15;0.80;;;;;;;;;;5031202;28;20133;-41
2021/07/11 04:49:56;;;;;;;1.65;0.90;;;;;;;;;;5021263;28;20396;-44
2021/07/11 04:52:22;;;;;;;2.45;1.00;;;;;;;;;;5011418;28;20052;-43
2021/07/11 04:54:49;;;;;;;2.65;0.93;;;;;;;;;;5024911;28;20507;-43
2021/07/11 04:57:16;;;;;;;1.75;0.80;;;;;;;;;;5031615;28;20471;-44
2021/07/11 04:59:43;;;;;;;1.50;0.80;;;;;;;;;;5029710;28;20051;-42
2021/07/11 05:02:10;;;;;;;1.02;0.80;;;;;;;;;;5012400;28;20046;-42
2021/07/11 05:04:37;;;;;;;1.60;0.80;;;;;;;;;;5028882;28;20052;-42
2021/07/11 05:07:03;;;;;;;1.65;1.10;;;;;;;;;;5030673;28;20140;-43
2021/07/11 05:09:30;;;;;;;1.90;1.00;;;;;;;;;;5021965;28;20456;-43
2021/07/11 05:11:57;;;;;;;2.00;0.90;;;;;;;;;;5011471;28;20121;-42
2021/07/11 05:14:23;;;;;;;0.95;0.80;;;;;;;;;;5015427;28;20050;-45
2021/07/11 05:16:50;;;;;;;1.10;0.70;;;;;;;;;;5023243;28;20076;-42
2021/07/11 05:19:17;;;;;;;0.80;0.60;;;;;;;;;;5025339;28;20065;-43
2021/07/11 05:21:44;;;;;;;1.00;0.70;;;;;;;;;;5011043;28;20408;-43
2021/07/11 05:24:10;;;;;;;1.35;0.80;;;;;;;;;;5013210;28;20061;-43
2021/07/11 05:26:37;;;;;;;1.25;1.00;;;;;;;;;;5026348;28;20044;-42
2021/07/11 05:29:04;;;;;;;0.70;0.70;;;;;;;;;;5030047;28;20038;-42
2021/07/11 05:31:31;;;;;;;1.33;0.90;;;;;;;;;;5031575;28;20049;-43
2021/07/11 05:33:57;;;;;;;1.27;0.82;;;;;;;;;;5022469;28;20057;-42
2021/07/11 05:36:24;;;;;;;1.38;0.65;;;;;;;;;;5022631;28;20539;-43
2021/07/11 05:38:51;;;;;;;2.45;0.90;;;;;;;;;;5020042;28;20124;-42
2021/07/11 05:41:18;;;;;;;2.35;0.90;;;;;;;;;;5031180;28;20057;-43
2021/07/11 05:43:45;;;;;;;1.35;0.90;;;;;;;;;;5018676;28;20074;-42
2021/07/11 05:46:12;;;;;;;1.92;0.85;;;;;;;;;;5022318;28;20072;-42
2021/07/11 05:48:39;;;;;;;2.80;0.88;;;;;;;;;;5023794;28;20072;-43
2021/07/11 05:51:05;;;;;;;1.25;0.93;;;;;;;;;;5011624;28;20053;-43
2021/07/11 05:53:32;;;;;;;1.70;1.00;;;;;;;;;;5022608;28;20121;-44
2021/07/11 05:55:59;;;;;;;1.23;0.88;;;;;;;;;;5034623;28;20125;-45
2021/07/11 05:58:26;;;;;;;1.70;0.90;;;;;;;;;;5037536;28;20038;-43
2021/07/11 06:00:52;;;;;;;1.30;0.90;;;;;;;;;;5018478;28;20030;-44
2021/07/11 06:03:20;;;;;;;2.03;0.88;;;;;;;;;;5017140;28;20076;-43
2021/07/11 06:05:47;;;;;;;2.63;1.60;;;;;;;;;;5015378;28;20151;-42
2021/07/11 06:08:13;;;;;;;1.35;1.00;;;;;;;;;;5029599;28;20054;-44
2021/07/11 06:10:40;;;;;;;1.80;0.85;;;;;;;;;;5027449;28;20050;-43
2021/07/11 06:13:07;;;;;;;1.63;0.90;;;;;;;;;;5025995;28;20523;-46
2021/07/11 06:15:34;;;;;;;1.52;1.20;;;;;;;;;;5030174;28;20041;-42
2021/07/11 06:18:01;;;;;;;2.13;1.00;;;;;;;;;;5027257;28;20057;-44
2021/07/11 06:20:27;;;;;;;0.90;0.73;;;;;;;;;;5030487;28;20116;-43
2021/07/11 06:22:54;;;;;;;1.42;0.90;;;;;;;;;;5029463;28;20037;-43
2021/07/11 06:25:21;;;;;;;2.67;0.80;;;;;;;;;;5013485;28;20415;-46
2021/07/11 06:27:48;;;;;;;0.80;0.70;;;;;;;;;;5022876;28;20037;-42
2021/07/11 06:30:16;;;;;;;1.30;0.85;;;;;;;;;;5032547;28;20128;-44
2021/07/11 06:32:43;;;;;;;2.88;0.80;;;;;;;;;;5028212;28;20434;-43
2021/07/11 06:35:11;;;;;;;1.77;1.10;;;;;;;;;;5028723;28;20048;-43
2021/07/11 06:37:38;;;;;;;0.88;0.80;;;;;;;;;;5028200;28;20037;-45
2021/07/11 06:40:05;;;;;;;3.67;0.90;;;;;;;;;;5031149;28;20048;-42
2021/07/11 06:42:32;;;;;;;0.93;0.80;;;;;;;;;;5021574;28;20064;-43
2021/07/11 06:44:59;;;;;;;1.83;0.90;;;;;;;;;;5032328;28;20104;-44
2021/07/11 06:47:26;;;;;;;1.17;0.80;;;;;;;;;;5030919;28;20052;-45
2021/07/11 06:49:52;;;;;;;2.63;1.08;;;;;;;;;;5018565;28;20425;-42
2021/07/11 06:52:19;;;;;;;3.25;2.00;;;;;;;;;;5022889;28;20467;-42
2021/07/11 06:54:50;;;;;;;2.08;1.20;;;;;;;;;;5024225;28;20175;-44
2021/07/11 06:57:20;;;;;;;1.00;0.85;;;;;;;;;;5031300;28;20101;-42
2021/07/11 06:59:47;;;;;;;2.08;1.00;;;;;;;;;;5033437;28;20041;-43
2021/07/11 07:02:14;;;;;;;2.08;0.80;;;;;;;;;;5030545;28;20072;-42
2021/07/11 07:04:41;;;;;;;1.77;0.90;;;;;;;;;;5022507;28;20096;-46
2021/07/11 07:07:07;;;;;;;1.95;0.98;;;;;;;;;;5029537;28;20117;-42
2021/07/11 07:09:34;;;;;;;1.20;1.02;;;;;;;;;;5022212;28;20136;-42
2021/07/11 07:12:01;;;;;;;1.42;0.88;;;;;;;;;;5027172;28;20137;-43
2021/07/11 07:14:28;;;;;;;1.10;0.80;;;;;;;;;;5033485;28;20473;-42
2021/07/11 07:16:54;;;;;;;1.27;1.00;;;;;;;;;;5033360;28;20483;-43
2021/07/11 07:19:21;;;;;;;1.38;0.88;;;;;;;;;;5016126;28;20072;-43
2021/07/11 07:21:48;;;;;;;1.25;0.90;;;;;;;;;;5022091;28;20038;-44
2021/07/11 07:24:15;;;;;;;2.25;0.95;;;;;;;;;;5032868;28;20053;-43
2021/07/11 07:26:41;;;;;;;1.85;1.00;;;;;;;;;;5048431;28;20099;-44
2021/07/11 07:29:09;;;;;;;0.95;0.80;;;;;;;;;;5032267;28;20041;-43
2021/07/11 07:31:36;;;;;;;1.60;1.05;;;;;;;;;;5033112;28;20069;-45
2021/07/11 07:34:03;;;;;;;1.33;0.77;;;;;;;;;;5027439;28;20070;-44
2021/07/11 07:36:31;;;;;;;1.08;0.90;;;;;;;;;;5032830;28;20053;-43
2021/07/11 07:38:57;;;;;;;1.60;1.08;;;;;;;;;;5031467;28;20132;-44
2021/07/11 07:41:24;;;;;;;1.42;0.90;;;;;;;;;;5033102;28;20138;-44
2021/07/11 07:43:51;;;;;;;1.70;1.10;;;;;;;;;;5026645;28;20045;-43
2021/07/11 07:46:18;;;;;;;2.13;1.00;;;;;;;;;;5034184;28;20399;-47
2021/07/11 07:48:45;;;;;;;1.58;1.25;;;;;;;;;;5044102;28;20510;-46
2021/07/11 07:51:12;;;;;;;1.85;1.27;;;;;;;;;;5037780;28;20072;-43
2021/07/11 07:53:38;;;;;;;2.60;1.20;;;;;;;;;;5033947;28;20418;-43
2021/07/11 07:56:05;;;;;;;1.23;0.90;;;;;;;;;;5024571;28;20041;-46
2021/07/11 07:58:32;;;;;;;2.97;1.45;;;;;;;;;;5018842;28;20129;-43
2021/07/11 08:00:59;;;;;;;1.88;1.30;;;;;;;;;;5032442;28;20069;-44
2021/07/11 08:03:26;;;;;;;4.65;1.58;;;;;;;;;;5030920;28;20056;-43
2021/07/11 08:05:52;;;;;;;1.55;1.17;;;;;;;;;;5032106;28;20132;-44
2021/07/11 08:08:19;;;;;;;1.88;1.40;;;;;;;;;;5032627;28;20046;-45
2021/07/11 08:10:46;;;;;;;1.92;1.35;;;;;;;;;;5031668;28;20139;-44
2021/07/11 08:13:13;;;;;;;1.77;1.20;;;;;;;;;;5015520;28;20044;-43
2021/07/11 08:15:40;;;;;;;2.22;1.55;;;;;;;;;;5031518;28;20080;-43
2021/07/11 08:18:07;;;;;;;2.08;1.30;;;;;;;;;;5034438;28;20033;-43
2021/07/11 08:20:34;;;;;;;2.28;1.40;;;;;;;;;;5017463;28;20033;-43
2021/07/11 08:23:01;;;;;;;4.13;1.92;;;;;;;;;;5012339;28;20068;-43
2021/07/11 08:25:28;;;;;;;5.32;1.80;;;;;;;;;;5013210;28;20108;-45
2021/07/11 08:27:54;;;;;;;3.20;1.50;;;;;;;;;;5013481;28;20416;-44
2021/07/11 08:30:21;;;;;;;3.60;1.73;;;;;;;;;;5020264;28;20140;-43
2021/07/11 08:32:48;;;;;;;2.63;1.23;;;;;;;;;;5014939;28;20042;-46
2021/07/11 08:35:16;;;;;;;2.33;1.25;;;;;;;;;;5013927;28;20128;-45
2021/07/11 08:37:43;;;;;;;2.42;1.40;;;;;;;;;;5014655;28;20066;-48
2021/07/11 08:40:11;;;;;;;2.30;1.40;;;;;;;;;;5020623;28;20047;-44
2021/07/11 08:42:42;;;;;;;2.50;1.52;;;;;;;;;;5029141;28;20076;-44
2021/07/11 08:45:10;;;;;;;3.10;1.45;;;;;;;;;;5032276;28;20087;-44
2021/07/11 08:47:38;;;;;;;1.98;1.40;;;;;;;;;;5030264;28;20136;-42
2021/07/11 08:50:06;;;;;;;3.35;2.05;;;;;;;;;;5026912;28;20045;-43
2021/07/11 08:52:37;;;;;;;3.55;1.95;;;;;;;;;;5028998;28;20038;-44
2021/07/11 08:55:14;;;;;;;2.70;1.63;;;;;;;;;;5019350;28;20098;-44
2021/07/11 08:57:46;;;;;;;2.25;1.45;;;;;;;;;;5025367;28;20100;-43
2021/07/11 09:00:14;;;;;;;2.78;1.42;;;;;;;;;;5012353;28;20046;-48
2021/07/11 09:02:41;;;;;;;4.03;1.63;;;;;;;;;;5011620;28;20121;-44
2021/07/11 09:05:19;;;;;;;3.95;1.65;;;;;;;;;;5017519;28;20125;-43
2021/07/11 09:07:55;;;;;;;1.98;1.30;;;;;;;;;;5036875;28;20463;-44
2021/07/11 09:10:27;;;;;;;3.80;1.70;;;;;;;;;;5031053;28;20108;-44
2021/07/11 09:12:54;;;;;;;2.23;1.50;;;;;;;;;;5015844;28;20045;-44
2021/07/11 09:15:27;;;;;;;2.85;1.73;;;;;;;;;;5016965;28;20466;-43
2021/07/11 09:17:58;;;;;;;2.95;1.38;;;;;;;;;;5023392;28;20029;-43
2021/07/11 09:20:25;;;;;;;2.80;1.70;;;;;;;;;;5022823;28;20575;-45
2021/07/11 09:23:01;;;;;;;2.58;1.48;;;;;;;;;;5024426;28;20400;-43
2021/07/11 09:25:29;;;;;;;3.50;1.27;;;;;;;;;;5020489;28;20038;-44
2021/07/11 09:27:56;;;;;;;1.73;1.38;;;;;;;;;;5023096;28;20092;-43
2021/07/11 09:30:23;;;;;;;4.07;1.65;;;;;;;;;;5025356;28;20081;-45
2021/07/11 09:32:51;;;;;;;1.73;1.35;;;;;;;;;;5010791;28;20124;-44
2021/07/11 09:35:23;;;;;;;3.53;1.90;;;;;;;;;;5023495;28;20123;-43
2021/07/11 09:37:54;;;;;;;2.80;1.80;;;;;;;;;;5018023;28;20100;-43
2021/07/11 09:40:22;;;;;;;2.60;1.85;;;;;;;;;;5015457;28;20052;-44
2021/07/11 09:42:51;;;;;;;3.53;1.75;;;;;;;;;;5016699;28;20038;-46
2021/07/11 09:45:20;;;;;;;2.67;1.70;;;;;;;;;;5011895;28;20081;-43
2021/07/11 09:47:47;;;;;;;2.97;1.98;;;;;;;;;;5025602;28;20525;-41
2021/07/11 09:50:20;;;;;;;3.47;1.75;;;;;;;;;;5011666;28;20073;-42
2021/07/11 09:52:49;;;;;;;3.80;2.20;;;;;;;;;;5020356;28;20562;-42
2021/07/11 09:55:18;;;;;;;2.80;2.03;;;;;;;;;;5019939;28;20129;-41
2021/07/11 09:57:46;;;;;;;3.78;2.50;;;;;;;;;;5031857;28;20685;-43
2021/07/11 10:00:24;;;;;;;2.58;2.10;;;;;;;;;;5038727;28;20096;-41
2021/07/11 10:02:55;;;;;;;3.67;2.20;;;;;;;;;;5041306;28;20046;-42
2021/07/11 10:05:23;;;;;;;4.05;2.72;;;;;;;;;;5015395;28;20105;-45
2021/07/11 10:07:50;;;;;;;4.80;2.40;;;;;;;;;;5038704;28;20129;-41
2021/07/11 10:10:18;;;;;;;3.97;2.15;;;;;;;;;;5048573;28;20626;-41
2021/07/11 10:12:46;;;;;;;3.28;2.10;;;;;;;;;;5020957;28;20117;-45
2021/07/11 10:15:16;;;;;;;4.70;2.80;;;;;;;;;;5016392;28;20069;-41
2021/07/11 10:17:52;;;;;;;4.68;2.55;;;;;;;;;;5034422;28;20043;-42
2021/07/11 10:20:20;;;;;;;4.22;2.83;;;;;;;;;;5029703;28;20057;-43
2021/07/11 10:22:48;;;;;;;3.50;2.50;;;;;;;;;;5034838;28;20069;-46
2021/07/11 10:25:20;;;;;;;2.72;2.10;;;;;;;;;;5017002;28;20124;-41
2021/07/11 10:27:48;;;;;;;3.47;2.58;;;;;;;;;;5023446;28;20479;-43
2021/07/11 10:30:16;;;;;;;3.88;2.88;;;;;;;;;;5029188;28;20042;-42
2021/07/11 10:32:43;;;;;;;4.97;2.88;;;;;;;;;;5015956;28;20446;-42
2021/07/11 10:35:10;;;;;;;5.05;2.97;;;;;;;;;;5015260;28;20104;-42
2021/07/11 10:37:44;;;;;;;4.35;2.58;;;;;;;;;;5021134;28;20045;-45
2021/07/11 10:40:16;;;;;;;3.78;2.80;;;;;;;;;;5032656;28;20084;-42
2021/07/11 10:42:46;;;;;;;3.90;2.58;;;;;;;;;;5035936;28;20045;-43
2021/07/11 10:45:13;;;;;;;4.95;2.92;;;;;;;;;;5042974;28;20037;-43
2021/07/11 10:47:40;;;;;;;4.00;2.50;;;;;;;;;;5020496;28;20056;-43
2021/07/11 10:50:19;;;;;;;4.15;2.80;;;;;;;;;;5025993;28;20080;-41
2021/07/11 10:52:46;;;;;;;4.38;2.55;;;;;;;;;;5028689;28;20088;-45
2021/07/11 10:55:13;;;;;;;6.18;2.90;;;;;;;;;;5030701;28;20045;-42
2021/07/11 10:57:40;;;;;;;4.10;2.28;;;;;;;;;;5016596;28;20046;-45
2021/07/11 11:00:08;;;;;;;3.80;2.70;;;;;;;;;;5026320;28;20133;-42
2021/07/11 11:02:35;;;;;;;4.03;3.22;;;;;;;;;;5029633;28;20044;-44
2021/07/11 11:05:12;;;;;;;2.95;2.50;;;;;;;;;;5025865;28;20040;-46
2021/07/11 11:07:48;;;;;;;5.55;3.47;;;;;;;;;;5029449;28;20068;-47
2021/07/11 11:10:21;;;;;;;3.83;2.75;;;;;;;;;;5028210;28;20053;-44
2021/07/11 11:12:48;;;;;;;;;;;;;;;;;;5027770;28;20056;-47
2021/07/11 11:15:15;;;;;;;4.57;2.60;;;;;;;;;;5024459;28;19959;-43
2021/07/11 11:17:42;;;;;;;5.60;4.78;;;;;;;;;;5032981;28;20204;-43
2021/07/11 11:20:18;;;;;;;5.10;2.45;;;;;;;;;;5020819;28;20084;-43
2021/07/11 11:22:52;;;;;;;4.72;2.25;;;;;;;;;;5025020;28;20046;-44
2021/07/11 11:25:22;;;;;;;3.28;2.75;;;;;;;;;;5025493;28;20060;-43
2021/07/11 11:27:55;;;;;;;6.28;3.40;;;;;;;;;;5028829;28;20448;-43
2021/07/11 11:30:23;;;;;;;2.83;2.17;;;;;;;;;;5021062;28;20045;-45
2021/07/11 11:32:51;;;;;;;2.95;2.20;;;;;;;;;;5031997;28;20041;-43
2021/07/11 11:35:19;;;;;;;2.88;1.80;;;;;;;;;;5018077;28;20043;-42
2021/07/11 11:37:47;;;;;;;4.18;2.00;;;;;;;;;;5014581;28;20121;-41
2021/07/11 11:40:14;;;;;;;3.35;2.20;;;;;;;;;;5021453;28;20042;-44
2021/07/11 11:42:44;;;;;;;3.33;2.13;;;;;;;;;;5027795;28;20046;-47
2021/07/11 11:45:12;;;;;;;4.47;2.10;;;;;;;;;;5025595;28;20036;-43
2021/07/11 11:47:38;;;;;;;2.45;1.88;;;;;;;;;;5026320;28;20069;-43
2021/07/11 11:50:23;;;;;;;3.08;2.17;;;;;;;;;;5018869;28;20044;-48
2021/07/11 11:52:50;;;;;;;3.70;2.00;;;;;;;;;;5028835;28;20059;-45
2021/07/11 11:55:17;;;;;;;2.30;2.00;;;;;;;;;;5028606;28;20046;-43
2021/07/11 11:57:44;;;;;;;3.47;1.90;;;;;;;;;;5027117;28;20067;-46
2021/07/11 12:00:14;;;;;;;3.40;2.03;;;;;;;;;;5024272;28;20045;-43
2021/07/11 12:02:41;;;;;;;3.13;2.42;;;;;;;;;;5022175;28;20480;-47
2021/07/11 12:05:09;;;;;;;3.45;2.03;;;;;;;;;;5026504;28;20104;-48
2021/07/11 12:07:36;;;;;;;3.30;2.30;;;;;;;;;;5023482;28;20092;-44
2021/07/11 12:10:03;;;;;;;3.40;2.10;;;;;;;;;;5032890;28;20099;-44
2021/07/11 12:12:30;;;;;;;2.70;1.85;;;;;;;;;;5014973;28;20143;-45
2021/07/11 12:14:57;;;;;;;3.05;2.03;;;;;;;;;;5013148;28;20530;-43
2021/07/11 12:17:29;;;;;;;3.42;2.15;;;;;;;;;;5022918;28;20449;-45
2021/07/11 12:19:57;;;;;;;2.53;1.88;;;;;;;;;;5043770;28;20034;-43
2021/07/11 12:22:27;;;;;;;3.33;2.05;;;;;;;;;;5012843;28;20052;-44
2021/07/11 12:25:05;;;;;;;2.85;2.00;;;;;;;;;;5013580;28;20129;-50
2021/07/11 12:27:33;;;;;;;3.47;2.42;;;;;;;;;;5030915;28;20072;-45
2021/07/11 12:30:14;;;;;;;3.88;1.90;;;;;;;;;;5017193;28;20045;-43
2021/07/11 12:32:46;;;;;;;3.90;2.20;;;;;;;;;;5031412;28;20091;-44
2021/07/11 12:35:14;;;;;;;2.72;1.67;;;;;;;;;;5026240;28;20062;-47
2021/07/11 12:37:58;;;;;;;3.60;2.17;;;;;;;;;;5012516;28;20081;-46
2021/07/11 12:40:29;;;;;;;3.75;2.15;;;;;;;;;;5017401;28;20113;-47
2021/07/11 12:43:00;;;;;;;3.25;2.05;;;;;;;;;;5029132;28;20064;-45
2021/07/11 12:45:27;;;;;;;3.25;2.13;;;;;;;;;;5031558;28;20065;-46
2021/07/11 12:47:53;;;;;;;3.20;1.90;;;;;;;;;;5030903;28;20041;-46
2021/07/11 12:50:34;;;;;;;2.92;2.10;;;;;;;;;;5026149;28;20041;-46
2021/07/11 12:53:01;;;;;;;2.60;2.08;;;;;;;;;;5034735;28;20469;-45
2021/07/11 12:55:28;;;;;;;2.72;2.00;;;;;;;;;;5013535;28;20129;-44
2021/07/11 12:57:55;;;;;;;2.92;1.85;;;;;;;;;;5024923;28;20459;-46
2021/07/11 13:00:26;;;;;;;4.13;2.55;;;;;;;;;;5024162;28;20408;-44
2021/07/11 13:02:56;;;;;;;3.58;2.70;;;;;;;;;;5026551;28;20476;-45
2021/07/11 13:05:30;;;;;;;5.15;3.20;;;;;;;;;;5023808;28;20041;-45
2021/07/11 13:08:04;;;;;;;5.55;3.00;;;;;;;;;;5025624;28;20132;-44
2021/07/11 13:10:31;;;;;;;4.47;3.28;;;;;;;;;;5023825;28;20477;-44
2021/07/11 13:12:58;;;;;;;4.68;3.10;;;;;;;;;;5022073;28;20426;-44
2021/07/11 13:15:25;;;;;;;4.70;3.75;;;;;;;;;;5027147;28;20045;-46
2021/07/11 13:17:52;;;;;;;3.50;2.45;;;;;;;;;;5020919;28;20042;-45
2021/07/11 13:20:18;;;;;;;4.32;2.95;;;;;;;;;;5019922;28;20116;-44
2021/07/11 13:22:45;;;;;;;4.53;2.70;;;;;;;;;;5023408;28;20441;-46
2021/07/11 13:25:12;;;;;;;3.45;2.88;;;;;;;;;;5025802;28;20132;-45
2021/07/11 13:27:39;;;;;;;3.90;3.22;;;;;;;;;;5027270;28;20044;-45
2021/07/11 13:30:06;;;;;;;4.65;2.80;;;;;;;;;;5016219;28;20046;-44
2021/07/11 13:32:33;;;;;;;3.67;2.42;;;;;;;;;;5018287;28;20049;-45
2021/07/11 13:35:00;;;;;;;3.28;2.30;;;;;;;;;;5020910;28;20048;-44
2021/07/11 13:37:27;;;;;;;4.50;2.60;;;;;;;;;;5026056;28;20034;-44
2021/07/11 13:39:53;;;;;;;4.57;2.30;;;;;;;;;;5036307;28;20128;-46
2021/07/11 13:42:21;;;;;;;3.78;2.15;;;;;;;;;;5031823;28;20033;-44
2021/07/11 13:44:48;;;;;;;5.18;2.20;;;;;;;;;;5033458;28;20034;-44
2021/07/11 13:47:15;;;;;;;2.50;1.80;;;;;;;;;;5027123;28;20383;-46
2021/07/11 13:49:42;;;;;;;2.60;1.90;;;;;;;;;;5029553;28;20060;-45
2021/07/11 13:52:08;;;;;;;3.15;2.25;;;;;;;;;;5021353;28;20480;-44
2021/07/11 13:54:35;;;;;;;3.75;2.30;;;;;;;;;;5024913;28;20049;-45
2021/07/11 13:57:02;;;;;;;3.38;2.22;;;;;;;;;;5026892;28;20037;-45
2021/07/11 13:59:29;;;;;;;3.33;1.83;;;;;;;;;;5051270;28;20072;-45
2021/07/11 14:01:56;;;;;;;3.67;1.98;;;;;;;;;;5035367;28;20103;-45
2021/07/11 14:04:22;;;;;;;2.95;2.00;;;;;;;;;;5026843;28;20132;-44
2021/07/11 14:06:51;;;;;;;2.92;2.08;;;;;;;;;;5025060;28;20037;-45
2021/07/11 14:09:18;;;;;;;4.78;1.92;;;;;;;;;;5031306;28;20483;-46
2021/07/11 14:11:45;;;;;;;3.47;1.80;;;;;;;;;;5027415;28;20045;-47
2021/07/11 14:14:12;;;;;;;3.00;2.10;;;;;;;;;;5032072;28;20076;-44
2021/07/11 14:16:39;;;;;;;3.53;2.05;;;;;;;;;;5032824;28;20464;-47
2021/07/11 14:19:06;;;;;;;3.35;2.00;;;;;;;;;;5032092;28;20399;-45
2021/07/11 14:21:32;;;;;;;2.70;2.10;;;;;;;;;;5026421;28;20049;-46
2021/07/11 14:23:59;;;;;;;3.70;2.25;;;;;;;;;;5009103;28;20507;-45
2021/07/11 14:26:46;;;;;;;3.22;2.10;;;;;;;;;;5020790;28;20033;-46
2021/07/11 14:29:13;;;;;;;3.00;2.10;;;;;;;;;;5022473;28;20193;-45
2021/07/11 14:31:40;;;;;;;2.97;1.98;;;;;;;;;;5028704;28;20565;-45
2021/07/11 14:34:07;;;;;;;3.47;1.85;;;;;;;;;;5017177;28;20116;-46
2021/07/11 14:36:34;;;;;;;2.83;1.90;;;;;;;;;;5019134;28;20474;-46
2021/07/11 14:39:01;;;;;;;2.63;1.88;;;;;;;;;;5024873;28;20048;-47
2021/07/11 14:41:28;;;;;;;3.00;2.00;;;;;;;;;;5029640;28;20077;-50
2021/07/11 14:43:55;;;;;;;2.10;1.60;;;;;;;;;;5022507;28;20037;-46
2021/07/11 14:46:22;;;;;;;2.85;1.70;;;;;;;;;;5032181;28;20423;-48
2021/07/11 14:48:49;;;;;;;2.67;1.58;;;;;;;;;;5033637;28;20049;-47
2021/07/11 14:51:16;;;;;;;3.20;1.55;;;;;;;;;;5027238;28;20202;-50